Time;durP1;ratioP1;P1;durP2;ratioP2;P2;SDS_P1;SDS_P2;PMS_P1;PMS_P2;Temp;Humidity;BMP_temperature;BMP_pressure;BME280_temperature;BME280_humidity;BME280_pressure;Samples;Min_cycle;Max_cycle;Signal;HPM_P1;HPM_P2
2021/10/18 00:00:57;;;;;;;153.70;102.30;;;;;;;5.45;91.57;99536.47;112281;1192;61072;-88
2021/10/18 00:03:24;;;;;;;169.30;112.50;;;;;;;5.41;91.54;99538.02;112548;1192;64327;-88
2021/10/18 00:05:51;;;;;;;158.70;108.90;;;;;;;5.38;91.63;99539.75;112634;1192;61043;-88
2021/10/18 00:08:18;;;;;;;160.20;109.60;;;;;;;5.34;91.55;99540.27;112294;1193;64506;-86
2021/10/18 00:10:45;;;;;;;159.90;105.10;;;;;;;5.30;91.47;99541.46;112601;1192;61056;-86
2021/10/18 00:13:11;;;;;;;162.40;109.30;;;;;;;5.25;91.51;99541.64;112630;1192;61047;-86
2021/10/18 00:15:38;;;;;;;156.40;105.60;;;;;;;5.21;91.53;99547.05;112747;1192;66029;-87
2021/10/18 00:18:05;;;;;;;157.40;103.90;;;;;;;5.18;91.76;99547.70;112300;1192;61079;-85
2021/10/18 00:20:32;;;;;;;156.90;106.20;;;;;;;5.14;91.73;99547.83;112626;1193;63663;-85
2021/10/18 00:22:58;;;;;;;148.90;101.40;;;;;;;5.11;91.66;99545.15;112772;1192;61414;-85
2021/10/18 00:25:25;;;;;;;156.10;102.60;;;;;;;5.06;91.62;99543.19;112460;1184;60976;-85
2021/10/18 00:27:52;;;;;;;151.60;102.00;;;;;;;5.02;91.74;99541.92;112640;1192;66120;-85
2021/10/18 00:30:18;;;;;;;157.80;101.20;;;;;;;4.99;91.70;99538.34;112476;1192;61059;-86
2021/10/18 00:32:45;;;;;;;149.60;100.20;;;;;;;4.97;91.68;99538.42;112598;1192;62554;-85
2021/10/18 00:35:12;;;;;;;146.20;99.50;;;;;;;4.94;91.62;99533.59;112659;1192;60985;-87
2021/10/18 00:37:39;;;;;;;154.20;104.40;;;;;;;4.91;91.62;99535.27;112529;1191;60993;-86
2021/10/18 00:40:08;;;;;;;137.20;95.20;;;;;;;4.90;91.72;99539.90;112577;1192;64938;-86
2021/10/18 00:42:35;;;;;;;147.40;99.00;;;;;;;4.86;91.79;99535.46;112335;1193;61157;-86
2021/10/18 00:45:02;;;;;;;146.40;94.90;;;;;;;4.83;91.76;99539.07;112631;1192;63990;-86
2021/10/18 00:47:29;;;;;;;138.50;92.60;;;;;;;4.80;91.83;99536.54;112611;1192;60970;-87
2021/10/18 00:49:55;;;;;;;143.20;98.20;;;;;;;4.77;91.88;99534.20;112635;1192;60957;-86
2021/10/18 00:52:23;;;;;;;145.00;95.60;;;;;;;4.75;91.97;99535.81;112448;1193;65693;-86
2021/10/18 00:54:51;;;;;;;138.60;92.90;;;;;;;4.75;91.98;99533.20;112612;1192;61042;-87
2021/10/18 00:57:18;;;;;;;151.60;98.80;;;;;;;4.73;92.03;99532.20;112481;1192;63898;-86
2021/10/18 00:59:45;;;;;;;141.90;95.30;;;;;;;4.70;92.08;99531.94;112623;1193;60986;-87
2021/10/18 01:02:13;;;;;;;146.60;93.00;;;;;;;4.68;92.13;99532.71;112566;1192;61117;-86
2021/10/18 01:04:40;;;;;;;144.80;100.60;;;;;;;4.68;92.19;99529.39;112832;1192;65025;-87
2021/10/18 01:07:07;;;;;;;141.30;97.20;;;;;;;4.67;92.25;99528.37;112477;1193;61059;-87
2021/10/18 01:09:35;;;;;;;155.40;103.20;;;;;;;4.66;92.30;99529.63;112511;1193;62608;-86
2021/10/18 01:12:02;;;;;;;142.30;97.10;;;;;;;4.66;92.42;99532.11;112382;1193;61060;-86
2021/10/18 01:14:29;;;;;;;149.70;98.20;;;;;;;4.65;92.48;99533.88;112662;1193;60975;-87
2021/10/18 01:16:56;;;;;;;147.70;97.50;;;;;;;4.67;92.59;99530.10;112517;1192;66011;-85
2021/10/18 01:19:22;;;;;;;146.70;96.00;;;;;;;4.69;92.72;99524.61;112368;1193;61193;-86
2021/10/18 01:22:01;;;;;;;143.50;93.00;;;;;;;4.68;92.62;99524.27;112456;1193;62351;-86
2021/10/18 01:24:30;;;;;;;138.90;94.30;;;;;;;4.68;92.62;99526.41;112530;1192;61075;-86
2021/10/18 01:26:57;;;;;;;144.60;96.10;;;;;;;4.69;92.70;99528.48;112518;1192;61033;-86
2021/10/18 01:29:24;;;;;;;144.90;94.30;;;;;;;4.71;92.74;99532.11;112635;1192;64634;-86
2021/10/18 01:31:51;;;;;;;145.00;93.80;;;;;;;4.70;92.86;99531.76;112517;1192;61049;-87
2021/10/18 01:34:18;;;;;;;142.90;94.20;;;;;;;4.71;92.99;99533.14;112368;1193;63876;-86
2021/10/18 01:36:45;;;;;;;136.00;95.50;;;;;;;4.72;93.01;99538.22;112692;1192;61050;-86
2021/10/18 01:39:12;;;;;;;137.80;90.80;;;;;;;4.71;92.90;99542.12;112438;1193;61060;-86
2021/10/18 01:41:39;;;;;;;129.50;86.50;;;;;;;4.70;92.87;99542.35;112650;1193;66015;-86
2021/10/18 01:44:06;;;;;;;127.20;85.90;;;;;;;4.69;92.94;99541.16;112386;1193;61074;-86
2021/10/18 01:46:32;;;;;;;129.60;84.30;;;;;;;4.67;92.89;99537.86;112467;1193;63842;-87
2021/10/18 01:48:59;;;;;;;121.60;86.20;;;;;;;4.65;92.91;99536.18;112443;1193;61055;-88
2021/10/18 01:51:25;;;;;;;124.90;83.80;;;;;;;4.62;92.90;99538.58;112516;1192;61023;-86
2021/10/18 01:53:52;;;;;;;123.20;81.60;;;;;;;4.58;92.85;99541.14;112460;1193;64659;-86
2021/10/18 01:56:19;;;;;;;117.20;81.60;;;;;;;4.55;92.86;99539.84;112331;1193;60953;-87
2021/10/18 01:58:46;;;;;;;118.10;79.30;;;;;;;4.55;92.89;99541.25;112607;1192;63716;-88
2021/10/18 02:01:13;;;;;;;126.50;81.90;;;;;;;4.55;93.04;99540.73;112482;1193;61020;-86
2021/10/18 02:03:40;;;;;;;116.00;76.60;;;;;;;4.56;93.09;99536.30;112654;1192;60956;-86
2021/10/18 02:06:10;;;;;;;111.10;75.40;;;;;;;4.57;93.21;99534.48;112507;1193;65883;-88
2021/10/18 02:08:37;;;;;;;;;;;;;;;4.58;93.32;99533.41;112653;1192;61042;-87
2021/10/18 02:11:06;;;;;;;119.30;76.20;;;;;;;4.58;93.34;99531.63;112587;1193;64053;-87
2021/10/18 02:13:33;;;;;;;112.90;76.40;;;;;;;4.61;93.44;99532.59;112670;1192;61062;-88
2021/10/18 02:15:59;;;;;;;99.30;68.90;;;;;;;4.68;93.50;99533.98;112778;1191;60979;-87
2021/10/18 02:18:26;;;;;;;90.90;62.50;;;;;;;4.72;93.54;99536.97;112524;1192;65908;-87
2021/10/18 02:20:59;;;;;;;79.80;53.10;;;;;;;4.80;93.61;99534.44;112726;1192;61351;-87
2021/10/18 02:23:27;;;;;;;83.60;54.00;;;;;;;4.88;93.64;99534.84;112775;1192;64180;-86
2021/10/18 02:25:54;;;;;;;81.00;54.40;;;;;;;4.96;93.73;99535.45;112596;1192;61088;-86
2021/10/18 02:28:22;;;;;;;84.80;54.10;;;;;;;5.02;93.78;99534.35;112409;1193;61086;-86
2021/10/18 02:30:50;;;;;;;80.00;55.50;;;;;;;5.09;93.69;99534.11;112629;1192;64799;-86
2021/10/18 02:33:17;;;;;;;81.60;54.00;;;;;;;5.16;93.73;99536.52;112686;1192;61005;-86
2021/10/18 02:35:44;;;;;;;73.10;48.60;;;;;;;5.21;93.74;99536.83;112735;1192;64024;-86
2021/10/18 02:38:10;;;;;;;64.30;45.00;;;;;;;5.25;93.86;99531.56;112644;1193;61068;-86
2021/10/18 02:40:37;;;;;;;61.20;45.80;;;;;;;5.31;93.78;99527.86;112641;1193;61158;-86
2021/10/18 02:43:04;;;;;;;63.30;43.10;;;;;;;5.36;93.82;99527.31;112651;1193;66035;-86
2021/10/18 02:45:30;;;;;;;57.70;39.60;;;;;;;5.41;93.76;99526.94;112690;1191;61135;-86
2021/10/18 02:47:57;;;;;;;59.10;40.60;;;;;;;5.47;93.74;99522.85;112414;1192;64013;-86
2021/10/18 02:50:24;;;;;;;53.90;38.20;;;;;;;5.52;93.77;99517.00;112303;1192;61138;-86
2021/10/18 02:52:50;;;;;;;58.80;38.80;;;;;;;5.57;93.68;99518.92;112360;1191;61844;-86
2021/10/18 02:55:17;;;;;;;58.50;39.70;;;;;;;5.62;93.75;99513.80;112402;1193;64696;-86
2021/10/18 02:57:43;;;;;;;58.90;40.30;;;;;;;5.67;93.80;99515.22;112678;1192;61056;-86
2021/10/18 03:00:10;;;;;;;56.10;39.90;;;;;;;5.70;93.76;99517.02;112482;1193;64256;-86
2021/10/18 03:02:37;;;;;;;64.20;43.20;;;;;;;5.73;93.79;99523.80;112667;1193;60973;-86
2021/10/18 03:05:05;;;;;;;57.70;38.90;;;;;;;5.75;93.70;99521.80;112487;1193;60998;-86
2021/10/18 03:07:31;;;;;;;55.70;39.10;;;;;;;5.76;93.69;99524.20;112693;1192;64653;-86
2021/10/18 03:09:58;;;;;;;53.80;37.20;;;;;;;5.79;93.80;99520.92;112644;1192;60979;-86
2021/10/18 03:12:25;;;;;;;54.30;36.80;;;;;;;5.82;93.80;99520.27;112324;1193;63826;-86
2021/10/18 03:14:51;;;;;;;51.40;35.20;;;;;;;5.84;93.76;99521.59;112457;1192;61135;-86
2021/10/18 03:17:18;;;;;;;43.60;33.00;;;;;;;5.86;93.72;99528.06;112341;1192;61017;-86
2021/10/18 03:19:45;;;;;;;51.40;37.80;;;;;;;5.88;93.73;99531.66;112479;1192;66174;-86
2021/10/18 03:22:12;;;;;;;50.80;35.10;;;;;;;5.91;93.73;99529.59;112783;1193;68614;-87
2021/10/18 03:24:38;;;;;;;45.30;31.30;;;;;;;5.94;93.76;99529.50;112479;1193;64056;-87
2021/10/18 03:27:05;;;;;;;48.70;30.70;;;;;;;5.98;93.67;99531.48;112637;1193;61132;-87
2021/10/18 03:29:32;;;;;;;40.30;28.40;;;;;;;6.02;93.58;99534.85;112312;1192;61084;-87
2021/10/18 03:31:58;;;;;;;38.40;27.30;;;;;;;6.05;93.53;99534.74;112582;1192;65987;-87
2021/10/18 03:34:25;;;;;;;37.00;25.10;;;;;;;6.09;93.48;99534.59;112555;1193;61048;-87
2021/10/18 03:36:52;;;;;;;34.00;23.80;;;;;;;6.11;93.26;99536.98;112646;1193;62337;-87
2021/10/18 03:39:18;;;;;;;32.20;24.50;;;;;;;6.15;93.23;99541.41;112660;1192;61052;-87
2021/10/18 03:41:45;;;;;;;32.10;24.60;;;;;;;6.18;93.14;99543.23;112468;1192;61116;-87
2021/10/18 03:44:12;;;;;;;32.10;22.80;;;;;;;6.20;93.02;99540.67;112688;1193;66020;-87
2021/10/18 03:46:39;;;;;;;34.90;22.60;;;;;;;6.23;92.98;99532.60;112679;1192;61056;-87
2021/10/18 03:49:06;;;;;;;32.40;23.30;;;;;;;6.25;92.91;99527.05;112609;1192;64075;-87
2021/10/18 03:51:32;;;;;;;33.30;21.90;;;;;;;6.27;92.80;99530.88;112346;1184;61087;-87
2021/10/18 03:54:00;;;;;;;32.10;23.00;;;;;;;6.28;92.68;99533.98;112644;1192;61011;-87
2021/10/18 03:56:26;;;;;;;34.00;25.10;;;;;;;6.30;92.75;99538.15;112553;1193;64730;-87
2021/10/18 03:58:53;;;;;;;32.20;22.70;;;;;;;6.31;92.70;99539.51;112658;1192;61129;-87
2021/10/18 04:01:19;;;;;;;31.10;24.10;;;;;;;6.32;92.65;99540.89;112571;1192;62929;-86
2021/10/18 04:03:46;;;;;;;27.30;21.80;;;;;;;6.34;92.57;99543.27;112581;1192;60974;-86
2021/10/18 04:06:13;;;;;;;31.70;23.30;;;;;;;6.35;92.46;99548.85;112630;1191;61061;-86
2021/10/18 04:08:40;;;;;;;31.30;23.10;;;;;;;6.37;92.51;99548.80;112644;1192;66060;-86
2021/10/18 04:11:07;;;;;;;29.20;21.00;;;;;;;6.40;92.41;99554.16;112648;1192;61497;-86
2021/10/18 04:13:34;;;;;;;30.90;23.00;;;;;;;6.41;92.28;99558.54;112374;1193;64014;-86
2021/10/18 04:16:00;;;;;;;29.40;21.50;;;;;;;6.42;92.25;99560.08;112569;1191;61540;-86
2021/10/18 04:18:27;;;;;;;34.10;22.80;;;;;;;6.44;92.27;99558.95;112694;1192;61151;-87
2021/10/18 04:20:55;;;;;;;33.30;22.50;;;;;;;6.45;92.28;99565.94;112506;1191;66086;-87
2021/10/18 04:23:21;;;;;;;31.80;22.80;;;;;;;6.46;92.14;99567.66;112650;1192;61027;-86
2021/10/18 04:25:48;;;;;;;28.80;21.50;;;;;;;6.48;92.07;99572.17;112575;1192;63817;-86
2021/10/18 04:28:15;;;;;;;33.60;21.70;;;;;;;6.50;92.00;99575.98;112578;1191;61016;-86
2021/10/18 04:30:42;;;;;;;27.70;20.80;;;;;;;6.51;91.99;99575.76;112389;1193;60953;-86
2021/10/18 04:33:09;;;;;;;32.90;21.50;;;;;;;6.53;91.98;99576.04;112469;1193;66179;-87
2021/10/18 04:35:35;;;;;;;28.70;20.60;;;;;;;6.54;91.92;99578.98;112268;1194;61038;-87
2021/10/18 04:38:02;;;;;;;28.00;21.00;;;;;;;6.56;91.85;99587.04;112280;1193;64116;-88
2021/10/18 04:40:30;;;;;;;27.70;20.90;;;;;;;6.57;91.71;99592.27;112408;1193;61128;-87
2021/10/18 04:42:57;;;;;;;29.90;23.00;;;;;;;6.59;91.78;99592.74;112591;1192;61378;-86
2021/10/18 04:45:23;;;;;;;32.00;22.70;;;;;;;6.61;91.79;99591.60;112638;1192;65989;-88
2021/10/18 04:47:51;;;;;;;28.90;21.00;;;;;;;6.61;91.77;99590.73;112682;1192;61151;-87
2021/10/18 04:50:19;;;;;;;31.10;22.90;;;;;;;6.62;91.72;99597.05;112897;1192;64004;-87
2021/10/18 04:52:47;;;;;;;31.50;24.20;;;;;;;6.63;91.72;99600.55;112822;1193;61013;-87
2021/10/18 04:55:14;;;;;;;32.60;26.00;;;;;;;6.65;91.67;99603.46;112646;1192;61075;-88
2021/10/18 04:57:58;;;;;;;34.20;25.30;;;;;;;6.66;91.70;99605.37;112665;1192;74647;-86
2021/10/18 05:00:27;;;;;;;30.30;24.30;;;;;;;6.66;91.66;99606.57;112740;1193;61041;-87
2021/10/18 05:02:55;;;;;;;37.20;28.50;;;;;;;6.67;91.60;99609.54;112467;1186;64004;-88
2021/10/18 05:05:22;;;;;;;35.90;26.00;;;;;;;6.69;91.52;99612.99;112634;1193;61016;-86
2021/10/18 05:08:04;;;;;;;32.40;22.80;;;;;;;6.69;91.63;99615.45;112734;1192;60977;-86
2021/10/18 05:10:32;;;;;;;31.10;21.80;;;;;;;6.70;91.60;99615.25;112732;1193;66018;-85
2021/10/18 05:12:59;;;;;;;33.20;25.90;;;;;;;6.70;91.62;99617.34;112476;1192;61030;-86
2021/10/18 05:15:26;;;;;;;31.10;23.60;;;;;;;6.71;91.58;99625.63;112297;1192;64187;-87
2021/10/18 05:17:53;;;;;;;37.20;25.60;;;;;;;6.72;91.63;99629.14;112324;1193;61097;-85
2021/10/18 05:20:20;;;;;;;34.90;25.30;;;;;;;6.71;91.65;99633.89;112469;1192;61017;-88
2021/10/18 05:22:47;;;;;;;35.40;26.00;;;;;;;6.71;91.62;99633.90;112562;1193;66024;-86
2021/10/18 05:25:14;;;;;;;32.70;28.00;;;;;;;6.71;91.64;99636.75;112654;1193;60979;-86
2021/10/18 05:27:42;;;;;;;41.30;31.40;;;;;;;6.71;91.72;99636.05;112683;1187;64185;-87
2021/10/18 05:30:10;;;;;;;40.90;32.80;;;;;;;6.71;91.77;99640.63;112700;1192;61172;-89
2021/10/18 05:32:37;;;;;;;38.80;29.80;;;;;;;6.71;91.89;99642.22;112641;1191;60982;-87
2021/10/18 05:35:06;;;;;;;39.40;29.90;;;;;;;6.71;91.97;99644.33;112303;1193;64630;-88
2021/10/18 05:37:33;;;;;;;37.00;30.00;;;;;;;6.74;92.14;99652.17;112469;1192;61058;-87
2021/10/18 05:39:59;;;;;;;37.40;29.70;;;;;;;6.75;92.20;99654.22;112567;1193;62707;-88
2021/10/18 05:42:26;;;;;;;34.40;26.60;;;;;;;6.75;92.33;99652.81;112663;1192;61061;-87
2021/10/18 05:44:52;;;;;;;30.20;24.90;;;;;;;6.76;92.49;99659.15;112349;1193;60918;-86
2021/10/18 05:47:19;;;;;;;34.30;24.80;;;;;;;6.76;92.48;99661.78;112625;1192;66010;-86
2021/10/18 05:49:48;;;;;;;33.70;25.10;;;;;;;6.77;92.54;99662.63;112685;1193;60936;-86
2021/10/18 05:52:15;;;;;;;31.40;25.30;;;;;;;6.78;92.62;99664.86;112690;1192;62622;-87
2021/10/18 05:54:42;;;;;;;37.60;27.30;;;;;;;6.80;92.78;99670.65;112534;1193;61758;-85
2021/10/18 05:57:09;;;;;;;37.90;26.30;;;;;;;6.82;92.89;99677.09;112567;1192;60960;-88
2021/10/18 05:59:37;;;;;;;35.50;24.80;;;;;;;6.84;92.95;99678.08;112676;1177;65890;-87
2021/10/18 06:02:06;;;;;;;36.30;24.90;;;;;;;6.84;93.01;99680.19;112594;1193;61126;-87
2021/10/18 06:04:35;;;;;;;39.40;25.30;;;;;;;6.85;93.06;99683.70;112586;1192;62338;-88
2021/10/18 06:07:02;;;;;;;34.20;24.80;;;;;;;6.85;93.12;99686.85;112522;1193;60954;-87
2021/10/18 06:09:28;;;;;;;34.70;24.40;;;;;;;6.87;93.23;99686.96;112524;1192;61011;-86
2021/10/18 06:11:55;;;;;;;32.30;24.10;;;;;;;6.89;93.34;99691.14;112562;1192;65862;-86
2021/10/18 06:14:22;;;;;;;32.10;25.10;;;;;;;6.89;93.32;99692.52;112606;1192;61036;-86
2021/10/18 06:16:48;;;;;;;33.00;25.30;;;;;;;6.91;93.36;99694.76;112736;1192;63744;-88
2021/10/18 06:19:15;;;;;;;30.50;25.10;;;;;;;6.92;93.34;99697.36;112312;1193;61085;-85
2021/10/18 06:21:42;;;;;;;34.30;26.50;;;;;;;6.92;93.36;99699.98;112591;1192;61138;-85
2021/10/18 06:24:08;;;;;;;38.40;28.10;;;;;;;6.93;93.52;99702.45;112558;1192;67048;-87
2021/10/18 06:26:35;;;;;;;43.30;27.60;;;;;;;6.94;93.68;99706.81;112712;1193;61030;-87
2021/10/18 06:29:02;;;;;;;43.00;29.20;;;;;;;6.94;93.79;99709.79;112542;1192;63936;-87
2021/10/18 06:31:29;;;;;;;39.30;28.70;;;;;;;6.96;93.86;99712.39;112381;1193;61167;-86
2021/10/18 06:33:55;;;;;;;34.90;27.80;;;;;;;6.99;93.99;99714.21;112475;1192;61118;-87
2021/10/18 06:36:22;;;;;;;33.70;28.30;;;;;;;6.99;93.97;99718.42;112616;1192;66103;-88
2021/10/18 06:38:49;;;;;;;36.20;29.60;;;;;;;7.00;94.02;99718.91;112626;1193;61215;-87
2021/10/18 06:41:15;;;;;;;41.30;30.90;;;;;;;7.02;94.05;99719.05;112668;1192;64035;-88
2021/10/18 06:43:43;;;;;;;39.60;31.80;;;;;;;7.03;94.23;99717.94;112586;1192;60986;-87
2021/10/18 06:46:09;;;;;;;38.30;31.70;;;;;;;7.07;94.20;99719.71;112636;1193;61017;-86
2021/10/18 06:48:37;;;;;;;39.50;31.50;;;;;;;7.12;94.27;99718.61;112749;1193;66043;-87
2021/10/18 06:51:04;;;;;;;37.90;30.40;;;;;;;7.17;94.34;99720.19;112457;1193;61043;-87
2021/10/18 06:53:35;;;;;;;41.40;32.90;;;;;;;7.21;94.44;99721.95;112380;1193;62740;-87
2021/10/18 06:56:05;;;;;;;39.00;31.90;;;;;;;7.25;94.38;99720.91;112301;1193;61130;-87
2021/10/18 06:58:33;;;;;;;45.80;33.40;;;;;;;7.31;94.47;99723.52;112422;1192;61147;-87
2021/10/18 07:01:01;;;;;;;47.40;34.40;;;;;;;7.35;94.54;99728.27;112434;1192;65986;-87
2021/10/18 07:03:28;;;;;;;44.30;34.80;;;;;;;7.38;94.67;99732.89;112689;1192;61614;-87
2021/10/18 07:05:54;;;;;;;48.90;37.00;;;;;;;7.40;94.71;99736.70;112766;1193;63808;-87
2021/10/18 07:08:41;;;;;;;40.50;32.50;;;;;;;7.44;94.82;99736.69;112797;1192;61064;-92
2021/10/18 07:11:08;;;;;;;37.70;31.40;;;;;;;7.50;94.90;99739.82;112633;1192;61045;-83
2021/10/18 07:13:34;;;;;;;38.70;31.20;;;;;;;7.54;94.90;99740.73;112651;1192;66043;-83
2021/10/18 07:16:01;;;;;;;42.80;34.20;;;;;;;7.57;94.93;99743.45;112681;1192;61059;-83
2021/10/18 07:18:28;;;;;;;44.30;34.60;;;;;;;7.62;94.95;99749.77;112522;1192;65030;-86
2021/10/18 07:20:55;;;;;;;41.50;33.00;;;;;;;7.66;95.02;99752.23;112675;1191;61052;-90
2021/10/18 07:23:22;;;;;;;38.80;31.50;;;;;;;7.70;94.99;99751.17;112497;1193;61065;-90
2021/10/18 07:25:48;;;;;;;40.10;31.80;;;;;;;7.74;95.13;99752.25;112758;1192;64719;-89
2021/10/18 07:28:16;;;;;;;38.40;29.90;;;;;;;7.78;95.12;99751.52;112712;1192;61031;-91
2021/10/18 07:30:45;;;;;;;40.30;32.20;;;;;;;7.80;95.21;99758.55;112817;1192;63834;-89
2021/10/18 07:33:32;;;;;;;39.80;29.90;;;;;;;7.79;95.23;99763.70;115294;1171;59784;-96
2021/10/18 07:36:07;;;;;;;37.30;30.40;;;;;;;7.81;95.42;99767.89;113745;1170;61062;-83
2021/10/18 07:38:38;;;;;;;39.00;31.50;;;;;;;7.81;95.51;99773.19;112634;1190;65721;-84
2021/10/18 07:41:06;;;;;;;40.90;31.60;;;;;;;7.81;95.54;99776.00;112647;1190;61069;-84
2021/10/18 07:43:33;;;;;;;43.00;32.60;;;;;;;7.81;95.63;99775.84;112692;1190;64031;-84
2021/10/18 07:46:00;;;;;;;39.90;32.90;;;;;;;7.80;95.78;99774.09;112692;1190;61035;-84
2021/10/18 07:48:26;;;;;;;39.70;31.10;;;;;;;7.81;95.89;99773.17;112623;1190;61153;-84
2021/10/18 07:50:53;;;;;;;44.60;32.70;;;;;;;7.80;95.95;99775.17;112593;1190;66001;-84
2021/10/18 07:53:20;;;;;;;39.40;31.40;;;;;;;7.79;96.01;99777.33;112588;1190;61040;-84
2021/10/18 07:55:47;;;;;;;39.90;32.80;;;;;;;7.80;96.13;99780.14;112618;1190;63897;-84
2021/10/18 07:58:13;;;;;;;41.00;33.80;;;;;;;7.80;96.23;99783.31;112675;1183;61128;-83
2021/10/18 08:00:40;;;;;;;44.80;34.60;;;;;;;7.82;96.33;99781.29;112644;1190;61126;-83
2021/10/18 08:03:06;;;;;;;40.50;31.20;;;;;;;7.82;96.33;99781.79;112638;1190;66025;-83
2021/10/18 08:05:33;;;;;;;44.20;33.40;;;;;;;7.83;96.40;99780.53;112687;1190;61043;-83
2021/10/18 08:08:00;;;;;;;40.20;32.40;;;;;;;7.85;96.40;99780.44;112700;1190;62604;-83
2021/10/18 08:10:27;;;;;;;39.70;31.60;;;;;;;7.89;96.61;99784.16;112440;1192;61048;-83
2021/10/18 08:12:57;;;;;;;43.70;31.60;;;;;;;7.91;96.54;99788.68;112719;1190;61014;-83
2021/10/18 08:15:26;;;;;;;40.90;31.70;;;;;;;7.93;96.60;99786.64;112697;1190;66679;-83
2021/10/18 08:17:53;;;;;;;41.90;32.80;;;;;;;7.97;96.67;99786.11;112714;1190;61116;-84
2021/10/18 08:20:21;;;;;;;40.80;30.80;;;;;;;8.02;96.69;99786.60;112763;1190;63732;-83
2021/10/18 08:22:48;;;;;;;42.00;33.90;;;;;;;8.07;96.67;99790.09;112692;1183;61017;-84
2021/10/18 08:25:16;;;;;;;39.20;32.00;;;;;;;8.08;96.71;99793.40;112700;1190;61046;-83
2021/10/18 08:27:43;;;;;;;42.80;33.00;;;;;;;8.06;96.66;99796.67;112670;1190;66058;-83
2021/10/18 08:30:10;;;;;;;41.50;33.20;;;;;;;8.05;96.78;99797.77;112662;1190;61034;-83
2021/10/18 08:32:39;;;;;;;40.10;31.40;;;;;;;8.08;96.88;99793.60;112591;1190;63660;-83
2021/10/18 08:35:07;;;;;;;44.70;32.80;;;;;;;8.10;96.91;99794.92;112688;1190;61014;-83
2021/10/18 08:40:21;;;;;;;42.10;31.30;;;;;;;8.19;96.90;99795.06;112650;1190;64484;-84
2021/10/18 08:45:21;;;;;;;49.00;35.60;;;;;;;8.21;96.92;99802.24;112643;1190;62641;-84
2021/10/18 08:47:53;;;;;;;50.60;37.20;;;;;;;8.23;97.02;99802.10;112654;1177;61055;-84
2021/10/18 08:50:20;;;;;;;44.40;35.20;;;;;;;8.27;97.02;99801.95;112677;1190;61075;-83
2021/10/18 08:52:48;;;;;;;46.60;35.90;;;;;;;8.31;97.02;99805.48;112565;1191;65831;-84
2021/10/18 08:55:15;;;;;;;40.30;33.10;;;;;;;8.36;96.93;99809.16;112696;1190;61107;-83
2021/10/18 08:57:41;;;;;;;44.50;34.00;;;;;;;8.40;96.92;99805.46;112651;1190;64017;-84
2021/10/18 09:00:54;;;;;;;44.20;35.00;;;;;;;8.42;96.98;99808.56;112630;1192;61001;-84
2021/10/18 09:03:28;;;;;;;46.90;34.20;;;;;;;8.44;97.00;99811.87;112631;1190;61033;-84
2021/10/18 09:06:17;;;;;;;48.40;35.70;;;;;;;8.45;96.97;99813.25;112697;1190;66170;-84
2021/10/18 09:08:49;;;;;;;46.90;34.00;;;;;;;8.46;97.03;99814.45;112715;1190;61055;-83
2021/10/18 09:11:21;;;;;;;41.60;32.60;;;;;;;8.48;97.05;99814.17;112500;1190;64006;-83
2021/10/18 09:13:52;;;;;;;44.70;32.80;;;;;;;8.51;97.06;99810.48;112717;1190;61134;-84
2021/10/18 09:16:37;;;;;;;45.50;34.60;;;;;;;8.58;97.17;99809.64;112673;1190;60940;-84
2021/10/18 09:19:15;;;;;;;46.70;31.60;;;;;;;8.68;96.98;99805.98;112709;1190;64660;-84
2021/10/18 09:21:45;;;;;;;41.90;31.90;;;;;;;8.83;96.75;99808.64;112695;1190;61049;-84
2021/10/18 09:24:36;;;;;;;42.80;33.50;;;;;;;9.00;96.57;99806.44;112656;1190;62634;-84
2021/10/18 09:27:07;;;;;;;42.60;30.80;;;;;;;9.16;96.31;99808.16;112669;1190;60944;-84
2021/10/18 09:29:45;;;;;;;36.60;29.70;;;;;;;9.26;96.12;99809.45;112732;1190;61039;-84
2021/10/18 09:32:18;;;;;;;36.60;28.70;;;;;;;9.30;96.15;99812.29;112673;1190;65710;-84
2021/10/18 09:34:45;;;;;;;37.00;30.40;;;;;;;9.34;96.13;99814.55;112699;1190;61058;-82
2021/10/18 09:37:14;;;;;;;38.00;30.10;;;;;;;9.42;96.11;99811.13;112704;1190;64719;-84
2021/10/18 09:39:42;;;;;;;34.30;27.00;;;;;;;9.49;95.96;99814.70;112745;1190;61004;-84
2021/10/18 09:42:17;;;;;;;31.80;26.10;;;;;;;9.52;95.78;99813.13;112673;1190;61049;-84
2021/10/18 10:54:04;;;;;;;33.00;27.80;;;;;;;9.43;95.32;99832.40;112664;1183;61036;-83
2021/10/18 10:56:44;;;;;;;35.30;29.40;;;;;;;9.44;95.32;99833.40;112554;1190;65716;-84
2021/10/18 10:59:28;;;;;;;33.10;27.50;;;;;;;9.45;95.37;99832.46;112641;1190;60982;-84
2021/10/18 11:02:06;;;;;;;32.50;27.30;;;;;;;9.45;95.55;99833.16;112628;1190;62479;-85
2021/10/18 11:04:33;;;;;;;33.70;27.30;;;;;;;9.46;95.53;99831.34;112715;1190;61055;-84
2021/10/18 11:07:06;;;;;;;30.60;27.10;;;;;;;9.47;95.44;99830.05;112660;1190;61300;-84
2021/10/18 11:09:50;;;;;;;37.00;28.80;;;;;;;9.48;95.50;99830.73;112659;1190;67004;-84
2021/10/18 11:12:17;;;;;;;33.40;28.30;;;;;;;9.48;95.47;99833.23;112676;1190;61052;-84
2021/10/18 11:14:52;;;;;;;34.60;28.40;;;;;;;9.45;95.56;99837.23;112646;1190;61078;-84
2021/10/18 11:17:19;;;;;;;35.30;27.60;;;;;;;9.43;95.63;99833.80;112672;1190;60969;-84
2021/10/18 11:20:01;;;;;;;32.50;25.80;;;;;;;9.42;95.64;99833.13;112576;1190;61122;-83
2021/10/18 11:22:38;;;;;;;34.50;28.50;;;;;;;9.41;95.67;99828.73;112677;1190;66042;-84
2021/10/18 11:25:19;;;;;;;33.10;26.40;;;;;;;9.42;95.65;99828.18;112650;1190;60947;-83
2021/10/18 11:27:55;;;;;;;32.30;27.70;;;;;;;9.38;95.65;99825.33;112668;1190;62674;-83
2021/10/18 11:30:44;;;;;;;34.20;29.30;;;;;;;9.37;95.74;99828.05;112806;1190;60968;-94
2021/10/18 12:16:23;;;;;;;121.40;108.70;;;;;;;9.54;96.09;99829.70;114932;1192;60967;-90
2021/10/18 12:18:52;;;;;;;93.10;80.10;;;;;;;9.57;96.18;99829.92;113312;1192;66065;-89
2021/10/18 12:21:19;;;;;;;63.00;51.00;;;;;;;9.60;96.15;99828.35;112979;1192;60831;-91
2021/10/18 12:23:51;;;;;;;53.40;43.00;;;;;;;9.64;95.99;99825.14;114037;1192;63841;-95
2021/10/18 12:26:28;;;;;;;64.50;47.50;;;;;;;9.67;96.11;99825.14;113922;1192;61216;-95
2021/10/18 12:29:03;;;;;;;53.60;41.70;;;;;;;9.70;96.05;99820.55;113903;1192;61078;-95
2021/10/18 12:31:32;;;;;;;54.90;42.40;;;;;;;9.73;96.10;99819.91;113769;1192;66123;-90
2021/10/18 12:34:18;;;;;;;46.60;38.10;;;;;;;9.75;96.09;99819.98;112764;1193;62115;-87
2021/10/18 12:44:31;;;;;;;42.80;33.30;;;;;;;9.86;95.99;99826.00;114070;1171;61042;-84
2021/10/18 12:46:58;;;;;;;42.10;35.90;;;;;;;9.86;96.04;99829.67;112802;1192;65986;-88
2021/10/18 12:49:32;;;;;;;43.80;35.20;;;;;;;9.88;96.23;99829.96;112819;1192;61163;-81
2021/10/18 12:52:02;;;;;;;39.40;33.00;;;;;;;9.90;96.16;99834.48;112925;1192;63621;-81
2021/10/18 12:54:41;;;;;;;45.90;37.80;;;;;;;9.90;96.07;99830.58;112874;1192;61027;-79
2021/10/18 12:57:09;;;;;;;41.50;33.50;;;;;;;9.90;96.07;99830.04;112782;1192;60310;-82
2021/10/18 12:59:38;;;;;;;45.80;37.10;;;;;;;9.88;96.17;99834.21;112785;1193;65654;-81
2021/10/18 13:02:22;;;;;;;46.70;38.80;;;;;;;9.84;96.04;99834.63;112799;1193;61020;-78
2021/10/18 13:05:20;;;;;;;41.30;33.40;;;;;;;9.80;96.16;99838.91;112860;1191;64980;-77
2021/10/18 13:07:58;;;;;;;43.80;36.10;;;;;;;9.77;96.36;99839.77;112720;1192;60962;-75
2021/10/18 13:10:30;;;;;;;44.60;33.80;;;;;;;9.78;96.42;99839.50;112744;1192;61071;-83
2021/10/18 13:12:58;;;;;;;48.40;38.80;;;;;;;9.81;96.53;99843.80;112877;1192;66978;-79
2021/10/18 13:15:26;;;;;;;45.80;38.00;;;;;;;9.83;96.47;99841.58;112777;1192;61063;-77
2021/10/18 13:17:52;;;;;;;41.70;35.30;;;;;;;9.84;96.48;99843.27;112689;1192;64029;-77
2021/10/18 13:20:23;;;;;;;46.90;37.70;;;;;;;9.85;96.45;99838.82;112717;1192;61027;-76
2021/10/18 13:22:52;;;;;;;43.60;37.00;;;;;;;9.85;96.44;99839.35;112718;1193;61059;-76
2021/10/18 13:25:21;;;;;;;44.00;35.40;;;;;;;9.87;96.53;99842.44;112769;1193;65832;-77
2021/10/18 13:27:50;;;;;;;40.70;35.60;;;;;;;9.90;96.57;99844.96;112732;1191;61155;-77